createdAt,value
2019-06-26T00:00:46.114Z,21.60
2019-06-26T00:03:14.697Z,21.60
2019-06-26T00:05:43.389Z,21.30
2019-06-26T00:08:11.090Z,21.60
2019-06-26T00:10:39.800Z,21.50
2019-06-26T00:13:08.898Z,21.30
2019-06-26T00:15:38.296Z,21.50
2019-06-26T00:18:07.850Z,21.10
2019-06-26T00:20:35.518Z,20.90
2019-06-26T00:23:03.282Z,20.80
2019-06-26T00:25:31.141Z,21.00
2019-06-26T00:28:01.397Z,21.00
2019-06-26T00:30:29.211Z,20.90
2019-06-26T00:32:57.435Z,20.70
2019-06-26T00:35:26.078Z,20.90
2019-06-26T00:37:53.942Z,21.00
2019-06-26T00:40:25.074Z,20.90
2019-06-26T00:42:52.961Z,20.80
2019-06-26T00:45:20.625Z,20.70
2019-06-26T00:47:48.862Z,20.70
2019-06-26T00:50:16.871Z,21.00
2019-06-26T00:52:44.550Z,20.90
2019-06-26T00:55:12.930Z,20.70
2019-06-26T00:57:40.743Z,20.70
2019-06-26T01:00:09.368Z,20.80
2019-06-26T01:02:37.799Z,20.50
2019-06-26T01:05:09.527Z,20.60
2019-06-26T01:07:38.730Z,20.30
2019-06-26T01:10:09.426Z,20.70
2019-06-26T01:12:38.304Z,20.80
2019-06-26T01:15:06.531Z,20.10
2019-06-26T01:17:37.017Z,20.30
2019-06-26T01:20:07.065Z,20.80
2019-06-26T01:22:37.080Z,20.20
2019-06-26T01:25:05.502Z,20.70
2019-06-26T01:27:33.683Z,20.20
2019-06-26T01:30:01.579Z,20.10
2019-06-26T01:32:29.329Z,20.10
2019-06-26T01:34:57.473Z,20.30
2019-06-26T01:37:25.165Z,20.20
2019-06-26T01:39:57.528Z,20.10
2019-06-26T01:42:27.644Z,20.00
2019-06-26T01:44:57.951Z,20.30
2019-06-26T01:47:27.758Z,20.10
2019-06-26T01:49:55.615Z,20.20
2019-06-26T01:52:23.305Z,20.10
2019-06-26T01:54:51.538Z,20.30
2019-06-26T01:57:19.358Z,20.10
2019-06-26T01:59:47.343Z,20.30
2019-06-26T02:02:15.750Z,20.10
2019-06-26T02:04:43.617Z,20.20
2019-06-26T02:07:11.304Z,20.10
2019-06-26T02:09:38.987Z,20.20
2019-06-26T02:12:07.666Z,20.10
2019-06-26T02:14:38.449Z,20.10
2019-06-26T02:17:06.469Z,20.00
2019-06-26T02:19:36.628Z,20.70
2019-06-26T02:22:04.348Z,20.70
2019-06-26T02:24:32.078Z,20.50
2019-06-26T02:26:59.890Z,20.70
2019-06-26T02:29:27.603Z,20.50
2019-06-26T02:31:55.746Z,20.50
2019-06-26T02:34:24.423Z,20.70
2019-06-26T02:36:52.905Z,20.60
2019-06-26T02:39:21.277Z,20.20
2019-06-26T02:41:49.082Z,20.60
2019-06-26T02:44:16.964Z,20.20
2019-06-26T02:46:47.511Z,20.60
2019-06-26T02:49:19.755Z,20.60
2019-06-26T02:51:47.512Z,20.10
2019-06-26T02:54:15.333Z,20.40
2019-06-26T02:56:44.384Z,20.50
2019-06-26T02:59:12.179Z,20.10
2019-06-26T03:01:40.642Z,20.00
2019-06-26T03:04:10.766Z,20.10
2019-06-26T03:06:39.146Z,20.20
2019-06-26T03:09:07.418Z,19.70
2019-06-26T03:11:35.089Z,20.10
2019-06-26T03:14:03.215Z,20.00
2019-06-26T03:16:30.899Z,20.10
2019-06-26T03:18:58.713Z,20.00
2019-06-26T03:21:28.955Z,20.20
2019-06-26T03:23:56.897Z,20.10
2019-06-26T03:26:26.222Z,20.00
2019-06-26T03:28:53.970Z,20.50
2019-06-26T03:31:22.740Z,20.60
2019-06-26T03:33:55.224Z,20.60
2019-06-26T03:36:23.377Z,20.00
2019-06-26T03:38:52.386Z,20.50
2019-06-26T03:41:23.790Z,20.50
2019-06-26T03:43:54.476Z,20.90
2019-06-26T03:46:22.470Z,20.50
2019-06-26T03:48:59.229Z,20.60
2019-06-26T03:51:29.197Z,20.00
2019-06-26T03:53:57.371Z,20.10
2019-06-26T03:56:25.188Z,20.20
2019-06-26T03:58:54.809Z,20.40
2019-06-26T04:01:22.586Z,20.30
2019-06-26T04:03:50.480Z,20.30
2019-06-26T04:06:18.296Z,20.50
2019-06-26T04:08:45.967Z,20.50
2019-06-26T04:11:13.801Z,20.70
2019-06-26T04:13:41.486Z,20.70
2019-06-26T04:16:09.166Z,20.90
2019-06-26T04:18:37.551Z,20.80
2019-06-26T04:21:08.868Z,20.80
2019-06-26T04:23:36.544Z,20.90
2019-06-26T04:26:04.420Z,20.80
2019-06-26T04:28:33.797Z,21.10
2019-06-26T04:31:01.647Z,20.70
2019-06-26T04:33:29.812Z,21.40
2019-06-26T04:35:57.589Z,20.70
2019-06-26T04:38:25.282Z,21.40
2019-06-26T04:40:55.574Z,21.70
2019-06-26T04:43:23.274Z,21.70
2019-06-26T04:45:58.226Z,21.60
2019-06-26T04:48:20.907Z,21.50
2019-06-26T04:50:49.215Z,21.80
2019-06-26T04:53:17.054Z,21.80
2019-06-26T04:55:44.796Z,21.90
2019-06-26T04:58:12.476Z,22.30
2019-06-26T05:00:40.437Z,22.00
2019-06-26T05:03:08.148Z,22.20
2019-06-26T05:05:39.846Z,22.30
2019-06-26T05:08:05.524Z,22.60
2019-06-26T05:10:33.245Z,22.30
2019-06-26T05:13:00.943Z,22.70
2019-06-26T05:15:28.778Z,22.70
2019-06-26T05:17:56.472Z,22.60
2019-06-26T05:20:24.427Z,23.00
2019-06-26T05:22:52.141Z,23.00
2019-06-26T05:25:19.985Z,23.00
2019-06-26T05:27:47.839Z,23.10
2019-06-26T05:30:15.845Z,22.90
2019-06-26T05:32:43.592Z,22.90
2019-06-26T05:35:11.007Z,22.90
2019-06-26T05:37:38.820Z,22.40
2019-06-26T05:40:09.359Z,23.20
2019-06-26T05:42:37.087Z,23.40
2019-06-26T05:45:06.421Z,22.90
2019-06-26T05:47:34.325Z,23.10
2019-06-26T05:50:02.107Z,23.00
2019-06-26T05:52:29.946Z,22.80
2019-06-26T05:54:57.821Z,23.20
2019-06-26T05:57:25.697Z,23.30
2019-06-26T05:59:53.477Z,23.60
2019-06-26T06:02:21.272Z,23.60
2019-06-26T06:04:48.955Z,23.60
2019-06-26T06:07:16.647Z,23.90
2019-06-26T06:09:44.473Z,23.50
2019-06-26T06:12:12.305Z,23.40
2019-06-26T06:14:40.136Z,23.70
2019-06-26T06:17:08.053Z,23.70
2019-06-26T06:19:35.794Z,24.20
2019-06-26T06:22:03.683Z,23.50
2019-06-26T06:24:31.493Z,23.30
2019-06-26T06:26:59.346Z,23.60
2019-06-26T06:29:30.585Z,24.30
2019-06-26T06:31:56.860Z,23.50
2019-06-26T06:34:24.528Z,23.70
2019-06-26T06:36:52.348Z,24.00
2019-06-26T06:39:20.184Z,24.30
2019-06-26T06:41:47.992Z,24.30
2019-06-26T06:44:15.670Z,24.10
2019-06-26T06:46:43.477Z,24.80
2019-06-26T06:49:11.190Z,24.60
2019-06-26T06:51:38.985Z,24.00
2019-06-26T06:54:06.711Z,24.50
2019-06-26T06:56:34.446Z,24.90
2019-06-26T06:59:04.961Z,24.60
2019-06-26T07:01:32.712Z,25.10
2019-06-26T07:04:03.417Z,24.70
2019-06-26T07:06:31.112Z,25.10
2019-06-26T07:09:00.530Z,24.50
2019-06-26T07:11:28.347Z,24.10
2019-06-26T07:13:56.333Z,24.40
2019-06-26T07:16:24.173Z,25.10
2019-06-26T07:18:52.259Z,25.10
2019-06-26T07:21:20.007Z,25.10
2019-06-26T07:23:47.746Z,25.40
2019-06-26T07:26:15.926Z,25.10
2019-06-26T07:28:43.753Z,24.70
2019-06-26T07:31:11.581Z,24.70
2019-06-26T07:33:39.416Z,25.00
2019-06-26T07:36:09.064Z,24.90
2019-06-26T07:38:36.740Z,24.20
2019-06-26T07:41:04.448Z,24.30
2019-06-26T07:43:32.346Z,24.20
2019-06-26T07:46:00.014Z,24.10
2019-06-26T07:48:27.721Z,24.30
2019-06-26T07:50:55.643Z,24.50
2019-06-26T07:53:23.328Z,24.70
2019-06-26T07:55:51.038Z,24.90
2019-06-26T07:58:19.209Z,24.30
2019-06-26T08:00:46.934Z,24.50
2019-06-26T08:03:14.625Z,24.10
2019-06-26T08:05:43.179Z,24.10
2019-06-26T08:08:14.599Z,24.50
2019-06-26T08:10:44.766Z,24.70
2019-06-26T08:13:12.607Z,24.70
2019-06-26T08:15:40.540Z,25.00
2019-06-26T08:18:08.255Z,24.90
2019-06-26T08:20:50.253Z,24.60
2019-06-26T08:23:05.726Z,24.70
2019-06-26T08:25:33.426Z,24.30
2019-06-26T08:28:01.276Z,24.00
2019-06-26T08:30:29.050Z,24.10
2019-06-26T08:32:56.784Z,24.40
2019-06-26T08:35:24.841Z,24.80
2019-06-26T08:38:09.045Z,24.40
2019-06-26T08:40:22.549Z,24.50
2019-06-26T08:42:50.383Z,24.80
2019-06-26T08:45:18.084Z,24.60
2019-06-26T08:47:45.915Z,25.00
2019-06-26T08:50:14.126Z,24.80
2019-06-26T08:52:41.953Z,24.80
2019-06-26T08:55:10.350Z,24.80
2019-06-26T08:57:38.039Z,25.10
2019-06-26T09:00:06.491Z,25.70
2019-06-26T09:02:34.254Z,25.60
2019-06-26T09:05:02.153Z,25.70
2019-06-26T09:07:29.829Z,25.70
2019-06-26T09:09:58.291Z,25.60
2019-06-26T09:12:26.238Z,26.60
2019-06-26T09:14:53.922Z,26.50
2019-06-26T09:17:21.600Z,26.10
2019-06-26T09:19:49.418Z,26.30
2019-06-26T09:22:17.099Z,26.70
2019-06-26T09:24:44.819Z,26.70
2019-06-26T09:27:14.950Z,26.40
2019-06-26T09:29:42.241Z,27.10
2019-06-26T09:32:09.959Z,27.40
2019-06-26T09:34:37.795Z,27.80
2019-06-26T09:37:05.532Z,27.70
2019-06-26T09:39:33.229Z,27.30
2019-06-26T09:42:01.154Z,27.30
2019-06-26T09:44:28.958Z,27.40
2019-06-26T09:46:56.640Z,27.40
2019-06-26T09:49:24.440Z,27.20
2019-06-26T09:51:52.190Z,26.50
2019-06-26T09:54:22.745Z,26.60
2019-06-26T09:56:50.545Z,26.70
2019-06-26T09:59:18.244Z,26.80
2019-06-26T10:01:45.995Z,27.40
2019-06-26T10:04:13.862Z,27.30
2019-06-26T10:06:41.723Z,27.40
2019-06-26T10:09:12.577Z,28.00
2019-06-26T10:11:40.424Z,27.90
2019-06-26T10:14:08.244Z,27.90
2019-06-26T10:16:35.947Z,27.80
2019-06-26T10:19:10.176Z,28.00
2019-06-26T10:21:33.704Z,28.20
2019-06-26T10:24:01.622Z,28.30
2019-06-26T10:26:32.340Z,27.90
2019-06-26T10:28:59.080Z,27.70
2019-06-26T10:31:26.788Z,28.20
2019-06-26T10:33:54.640Z,28.60
2019-06-26T10:36:24.664Z,29.20
2019-06-26T10:38:52.523Z,29.30
2019-06-26T10:41:20.455Z,29.50
2019-06-26T10:43:48.294Z,29.60
2019-06-26T10:46:15.991Z,30.00
2019-06-26T10:48:43.820Z,30.40
2019-06-26T10:51:12.313Z,29.90
2019-06-26T10:54:04.422Z,29.60
2019-06-26T10:56:32.379Z,29.80
2019-06-26T10:59:00.301Z,30.30
2019-06-26T11:01:31.056Z,30.50
2019-06-26T11:04:00.366Z,30.50
2019-06-26T11:06:28.190Z,30.80
2019-06-26T11:08:56.035Z,30.80
2019-06-26T11:11:23.732Z,31.00
2019-06-26T11:13:53.597Z,31.10
2019-06-26T11:16:21.368Z,30.90
2019-06-26T11:18:49.188Z,31.10
2019-06-26T11:21:16.904Z,30.90
2019-06-26T11:23:44.727Z,30.60
2019-06-26T11:26:12.514Z,30.30
2019-06-26T11:28:40.969Z,30.60
2019-06-26T11:31:11.459Z,30.50
2019-06-26T11:33:39.388Z,30.30
2019-06-26T11:36:07.100Z,30.40
2019-06-26T11:38:34.919Z,30.80
2019-06-26T11:41:02.843Z,30.60
2019-06-26T11:43:30.664Z,30.50
2019-06-26T11:45:58.383Z,30.60
2019-06-26T11:48:26.149Z,30.30
2019-06-26T11:50:54.015Z,30.20
2019-06-26T11:53:27.414Z,30.30
2019-06-26T11:55:55.248Z,30.70
2019-06-26T11:58:22.942Z,30.70
2019-06-26T12:00:51.105Z,30.50
2019-06-26T12:03:18.882Z,30.80
2019-06-26T12:05:46.594Z,30.80
2019-06-26T12:08:14.303Z,31.20
2019-06-26T12:10:42.137Z,31.80
2019-06-26T12:13:10.104Z,32.20
2019-06-26T12:15:37.905Z,32.30
2019-06-26T12:18:05.812Z,32.10
2019-06-26T12:20:33.488Z,31.40
2019-06-26T12:23:01.274Z,31.30
2019-06-26T12:25:29.181Z,31.40
2019-06-26T12:27:56.950Z,31.90
2019-06-26T12:30:25.351Z,31.80
2019-06-26T12:33:03.070Z,31.80
2019-06-26T12:35:22.881Z,31.50
2019-06-26T12:37:50.698Z,31.40
2019-06-26T12:40:20.828Z,31.10
2019-06-26T12:42:48.662Z,31.20
2019-06-26T12:45:16.878Z,30.90
2019-06-26T12:47:44.570Z,30.40
2019-06-26T12:50:13.381Z,30.10
2019-06-26T12:52:41.181Z,29.90
2019-06-26T12:55:09.103Z,29.70
2019-06-26T12:57:36.988Z,29.60
2019-06-26T13:00:05.571Z,29.40
2019-06-26T13:02:33.563Z,29.50
2019-06-26T13:05:01.462Z,29.70
2019-06-26T13:07:29.157Z,29.90
2019-06-26T13:10:16.907Z,29.80
2019-06-26T13:12:46.074Z,29.60
2019-06-26T13:15:14.484Z,29.70
2019-06-26T13:17:42.200Z,29.40
2019-06-26T13:20:10.772Z,29.20
2019-06-26T13:22:38.740Z,29.50
2019-06-26T13:25:07.636Z,29.70
2019-06-26T13:27:35.520Z,29.60
2019-06-26T13:30:03.717Z,29.40
2019-06-26T13:32:31.504Z,28.70
2019-06-26T13:34:59.387Z,29.10
2019-06-26T13:37:27.161Z,29.30
2019-06-26T13:39:55.305Z,28.90
2019-06-26T13:42:23.189Z,28.80
2019-06-26T13:44:52.670Z,29.00
2019-06-26T13:47:20.588Z,29.30
2019-06-26T13:49:48.276Z,29.00
2019-06-26T13:52:15.971Z,29.30
2019-06-26T13:54:43.837Z,28.70
2019-06-26T13:57:11.550Z,28.80
2019-06-26T13:59:39.384Z,29.20
2019-06-26T14:02:07.087Z,29.50
2019-06-26T14:04:34.763Z,29.20
2019-06-26T14:07:02.578Z,29.10
2019-06-26T14:09:30.363Z,29.00
2019-06-26T14:11:58.203Z,29.20
2019-06-26T14:14:41.047Z,29.40
2019-06-26T14:16:55.645Z,29.50
2019-06-26T14:19:26.623Z,29.70
2019-06-26T14:21:53.077Z,29.70
2019-06-26T14:24:20.964Z,29.70
2019-06-26T14:26:48.772Z,29.80
2019-06-26T14:29:20.775Z,30.00
2019-06-26T14:31:46.227Z,30.00
2019-06-26T14:34:13.942Z,30.10
2019-06-26T14:36:41.822Z,30.00
2019-06-26T14:39:09.632Z,30.00
2019-06-26T14:41:39.204Z,30.00
2019-06-26T14:44:07.222Z,29.80
2019-06-26T14:46:34.987Z,29.40
2019-06-26T14:49:03.478Z,29.30
2019-06-26T14:51:42.241Z,29.40
2019-06-26T14:54:00.844Z,29.30
2019-06-26T14:56:28.697Z,29.00
2019-06-26T14:58:56.503Z,28.70
2019-06-26T15:01:24.337Z,29.00
2019-06-26T15:03:52.076Z,29.10
2019-06-26T15:06:19.927Z,28.80
2019-06-26T15:08:47.615Z,29.00
2019-06-26T15:11:15.804Z,29.00
2019-06-26T15:13:43.824Z,28.80
2019-06-26T15:16:11.896Z,29.00
2019-06-26T15:18:39.681Z,29.00
2019-06-26T15:21:07.460Z,28.90
2019-06-26T15:23:35.297Z,29.00
2019-06-26T15:26:03.011Z,29.00
2019-06-26T15:28:30.718Z,29.10
2019-06-26T15:30:58.575Z,29.30
2019-06-26T15:33:26.321Z,29.60
2019-06-26T15:35:54.129Z,29.40
2019-06-26T15:38:21.840Z,29.30
2019-06-26T15:40:49.643Z,29.20
2019-06-26T15:43:17.509Z,29.40
2019-06-26T15:45:45.215Z,29.10
2019-06-26T15:48:17.945Z,29.10
2019-06-26T15:50:45.844Z,29.00
2019-06-26T15:53:14.130Z,28.90
2019-06-26T15:55:41.956Z,29.10
2019-06-26T15:58:09.672Z,29.40
2019-06-26T16:00:37.493Z,29.50
2019-06-26T16:03:05.191Z,29.80
2019-06-26T16:05:33.046Z,29.40
2019-06-26T16:08:00.790Z,29.10
2019-06-26T16:10:28.483Z,28.90
2019-06-26T16:12:56.442Z,29.00
2019-06-26T16:15:24.319Z,28.90
2019-06-26T16:18:03.650Z,28.90
2019-06-26T16:20:32.538Z,28.70
2019-06-26T16:23:00.231Z,28.70
2019-06-26T16:25:28.101Z,28.70
2019-06-26T16:28:05.097Z,28.80
2019-06-26T16:30:25.546Z,28.60
2019-06-26T16:32:56.680Z,28.60
2019-06-26T16:35:23.075Z,28.60
2019-06-26T16:37:50.766Z,28.80
2019-06-26T16:40:18.613Z,28.40
2019-06-26T16:43:05.620Z,28.30
2019-06-26T16:48:27.324Z,27.90
2019-06-26T16:50:55.574Z,27.40
2019-06-26T16:53:23.412Z,26.90
2019-06-26T16:55:51.119Z,26.60
2019-06-26T16:58:19.010Z,26.60
2019-06-26T17:00:46.757Z,26.70
2019-06-26T17:03:14.685Z,26.80
2019-06-26T17:05:42.624Z,26.90
2019-06-26T17:08:10.685Z,26.70
2019-06-26T17:10:38.415Z,26.80
2019-06-26T17:13:06.292Z,26.70
2019-06-26T17:15:34.118Z,26.70
2019-06-26T17:18:02.086Z,26.60
2019-06-26T17:20:30.233Z,26.50
2019-06-26T17:23:05.606Z,26.50
2019-06-26T17:25:27.623Z,26.30
2019-06-26T17:27:55.428Z,26.70
2019-06-26T17:30:23.237Z,26.30
2019-06-26T17:32:50.960Z,26.50
2019-06-26T17:35:18.704Z,26.20
2019-06-26T17:37:46.558Z,26.30
2019-06-26T17:40:14.395Z,25.80
2019-06-26T17:42:42.322Z,25.80
2019-06-26T17:45:10.081Z,25.90
2019-06-26T17:47:37.949Z,25.70
2019-06-26T17:50:07.063Z,26.50
2019-06-26T17:52:38.268Z,26.40
2019-06-26T17:55:05.466Z,25.60
2019-06-26T17:57:37.531Z,25.50
2019-06-26T18:00:06.956Z,25.70
2019-06-26T18:02:35.071Z,25.50
2019-06-26T18:05:02.875Z,25.00
2019-06-26T18:07:30.767Z,25.00
2019-06-26T18:10:07.356Z,25.10
2019-06-26T18:12:35.298Z,24.90
2019-06-26T18:15:03.377Z,24.80
2019-06-26T18:17:31.224Z,24.80
2019-06-26T18:19:59.102Z,24.10
2019-06-26T18:22:26.909Z,24.10
2019-06-26T18:24:54.639Z,24.10
2019-06-26T18:27:22.874Z,23.60
2019-06-26T18:29:50.686Z,24.10
2019-06-26T18:32:18.458Z,24.00
2019-06-26T18:34:46.977Z,23.80
2019-06-26T18:37:14.833Z,23.30
2019-06-26T18:39:42.674Z,23.50
2019-06-26T18:42:10.398Z,23.40
2019-06-26T18:44:38.140Z,23.40
2019-06-26T18:47:06.168Z,23.20
2019-06-26T18:49:33.882Z,22.90
2019-06-26T18:52:01.600Z,23.10
2019-06-26T18:54:29.438Z,22.60
2019-06-26T18:56:57.164Z,22.70
2019-06-26T18:59:28.722Z,22.90
2019-06-26T19:01:56.702Z,22.60
2019-06-26T19:04:24.513Z,22.60
2019-06-26T19:06:52.254Z,23.00
2019-06-26T19:09:20.098Z,22.80
2019-06-26T19:11:47.848Z,22.40
2019-06-26T19:14:15.578Z,22.20
2019-06-26T19:16:43.446Z,21.90
2019-06-26T19:19:12.304Z,22.10
2019-06-26T19:21:43.094Z,22.00
2019-06-26T19:24:11.172Z,22.10
2019-06-26T19:26:39.016Z,21.90
2019-06-26T19:29:06.724Z,21.90
2019-06-26T19:31:34.589Z,22.00
2019-06-26T19:34:02.528Z,22.00
2019-06-26T19:36:30.273Z,21.90
2019-06-26T19:38:58.188Z,22.00
2019-06-26T19:41:25.915Z,21.70
2019-06-26T19:43:53.786Z,21.70
2019-06-26T19:46:21.629Z,21.50
2019-06-26T19:48:49.383Z,21.40
2019-06-26T19:51:17.480Z,21.70
2019-06-26T19:53:45.546Z,21.40
2019-06-26T19:56:13.374Z,21.50
2019-06-26T19:58:41.237Z,21.30
2019-06-26T20:01:09.200Z,21.40
2019-06-26T20:03:36.979Z,21.40
2019-06-26T20:06:04.867Z,21.00
2019-06-26T20:08:32.711Z,20.90
2019-06-26T20:11:00.533Z,20.70
2019-06-26T20:13:28.409Z,20.80
2019-06-26T20:15:56.133Z,20.70
2019-06-26T20:18:23.850Z,20.80
2019-06-26T20:20:51.704Z,20.80
2019-06-26T20:23:19.774Z,20.80
2019-06-26T20:25:47.496Z,20.80
2019-06-26T20:28:15.388Z,20.70
2019-06-26T20:30:43.134Z,20.60
2019-06-26T20:33:11.897Z,20.20
2019-06-26T20:35:39.671Z,20.40
2019-06-26T20:38:07.395Z,20.10
2019-06-26T20:40:35.382Z,20.20
2019-06-26T20:43:03.551Z,20.20
2019-06-26T20:45:31.275Z,20.20
2019-06-26T20:48:01.048Z,20.10
2019-06-26T20:50:28.749Z,20.10
2019-06-26T20:52:56.673Z,20.00
2019-06-26T20:55:24.646Z,20.20
2019-06-26T20:57:52.574Z,20.10
2019-06-26T21:00:22.564Z,20.20
2019-06-26T21:02:53.191Z,20.10
2019-06-26T21:05:19.737Z,20.00
2019-06-26T21:07:47.602Z,20.00
2019-06-26T21:10:15.761Z,20.00
2019-06-26T21:12:43.472Z,19.90
2019-06-26T21:15:12.010Z,19.90
2019-06-26T21:17:39.913Z,20.20
2019-06-26T21:20:08.915Z,20.10
2019-06-26T21:22:36.634Z,19.50
2019-06-26T21:25:17.471Z,19.90
2019-06-26T21:27:34.858Z,19.90
2019-06-26T21:30:02.741Z,19.50
2019-06-26T21:32:30.638Z,19.90
2019-06-26T21:34:58.331Z,20.00
2019-06-26T21:37:26.259Z,20.00
2019-06-26T21:39:54.130Z,20.10
2019-06-26T21:42:22.104Z,20.00
2019-06-26T21:44:50.065Z,20.00
2019-06-26T21:47:17.782Z,19.90
2019-06-26T21:49:45.727Z,20.00
2019-06-26T21:52:13.672Z,19.80
2019-06-26T21:54:41.386Z,19.90
2019-06-26T21:57:09.524Z,19.80
2019-06-26T21:59:37.455Z,19.30
2019-06-26T22:02:05.191Z,19.40
2019-06-26T22:04:32.859Z,19.30
2019-06-26T22:07:01.646Z,19.50
2019-06-26T22:09:29.447Z,19.30
2019-06-26T22:12:00.685Z,19.50
2019-06-26T22:14:27.191Z,19.40
2019-06-26T22:16:54.922Z,19.40
2019-06-26T22:19:22.826Z,19.30
2019-06-26T22:21:50.556Z,19.10
2019-06-26T22:24:18.464Z,19.20
2019-06-26T22:26:46.182Z,19.00
2019-06-26T22:29:14.055Z,19.10
2019-06-26T22:31:41.874Z,19.30
2019-06-26T22:34:09.758Z,18.90
2019-06-26T22:36:37.586Z,18.50
2019-06-26T22:39:05.883Z,18.50
2019-06-26T22:41:33.715Z,18.60
2019-06-26T22:44:01.429Z,18.90
2019-06-26T22:46:29.125Z,18.80
2019-06-26T22:48:56.978Z,18.60
2019-06-26T22:51:24.684Z,19.20
2019-06-26T22:53:52.624Z,19.10
2019-06-26T22:56:20.412Z,19.10
2019-06-26T22:58:48.369Z,19.00
2019-06-26T23:01:16.277Z,19.20
2019-06-26T23:03:44.018Z,19.20
2019-06-26T23:06:11.985Z,19.30
2019-06-26T23:08:39.687Z,19.20
2019-06-26T23:11:07.383Z,18.90
2019-06-26T23:13:35.291Z,19.00
2019-06-26T23:16:03.176Z,19.20
2019-06-26T23:18:30.866Z,19.20
2019-06-26T23:20:58.813Z,19.10
2019-06-26T23:23:26.532Z,18.90
2019-06-26T23:25:55.175Z,18.90
2019-06-26T23:28:23.340Z,19.20
2019-06-26T23:30:51.022Z,18.60
2019-06-26T23:33:18.727Z,18.50
2019-06-26T23:35:46.767Z,18.80
2019-06-26T23:38:14.457Z,18.90
2019-06-26T23:40:42.163Z,18.60
2019-06-26T23:43:10.050Z,19.10
2019-06-26T23:45:37.747Z,19.10
2019-06-26T23:48:05.586Z,18.50
2019-06-26T23:50:33.415Z,18.50
2019-06-26T23:53:01.116Z,18.50
2019-06-26T23:55:28.885Z,18.50
2019-06-26T23:57:59.501Z,18.60
